Bookmark and Share
Track history (hours):
 

Seiyu Maru

Last reported at 2014-Apr-14 21:33 UTC. Time now 2014-Apr-16 16:13 UTC.
Position N 34°57' E 140°07'.

Length 75 m; draft 4.5 m.

Type: Cargo ship. MMSI: 431002433.

NotesDate/timePositionNaut miles runAvg speedWind from/ knotsBaromVisibWave heightAir tempDewpointWater temp
2014-Apr-14 21:33N 34°57' E 140°07'65 8.1
2014-Apr-14 13:32N 35°55' E 140°41'1 0.0
2014-Apr-13 13:33N 35°55' E 140°40'0 0.2
2014-Apr-13 12:33N 35°55' E 140°40'0 0.0
2014-Apr-12 08:28N 35°55' E 140°40'0 0.0
2014-Apr-11 23:32N 35°56' E 140°40'0 0.0
2014-Apr-11 22:32N 35°56' E 140°40'1 0.8
2014-Apr-11 21:33N 35°55' E 140°41'1 1.3
2014-Apr-11 20:33N 35°56' E 140°42'2 2.4
2014-Apr-11 19:33N 35°58' E 140°43'22 9.5
2014-Apr-11 17:17N 35°40' E 140°56'3211.8
2014-Apr-11 14:33N 35°14' E 140°32'1712.3
2014-Apr-11 13:10N 35°02' E 140°17'812.0
2014-Apr-11 12:32N 34°59' E 140°09'  
2014-Apr-08 07:33N 34°37' E 134°57'1212.2
2014-Apr-08 06:33N 34°35' E 135°11'1110.8
2014-Apr-08 05:33N 34°31' E 135°24'0 0.0
2014-Apr-07 22:32N 34°31' E 135°24'0 0.4
2014-Apr-07 21:22N 34°31' E 135°24'  

Dump ship's entire track history

sailing weather and tide predictions

Seiyu Maru — JD3189 — position and weather